createdAt,value
2023-07-16T00:00:10.204Z,27.12
2023-07-16T00:01:10.212Z,27.12
2023-07-16T00:02:10.279Z,27.12
2023-07-16T00:03:10.253Z,27.11
2023-07-16T00:04:10.249Z,27.11
2023-07-16T00:05:10.242Z,27.11
2023-07-16T00:06:10.243Z,27.11
2023-07-16T00:07:10.249Z,27.11
2023-07-16T00:08:10.258Z,27.11
2023-07-16T00:09:10.264Z,27.11
2023-07-16T00:10:10.290Z,27.11
2023-07-16T00:11:10.280Z,27.11
2023-07-16T00:12:10.283Z,27.11
2023-07-16T00:13:10.292Z,27.11
2023-07-16T00:14:10.304Z,27.11
2023-07-16T00:15:10.309Z,27.12
2023-07-16T00:16:10.385Z,27.12
2023-07-16T00:17:10.314Z,27.11
2023-07-16T00:18:10.384Z,27.10
2023-07-16T00:19:10.332Z,27.11
2023-07-16T00:20:10.358Z,27.11
2023-07-16T00:21:10.346Z,27.11
2023-07-16T00:22:10.364Z,27.10
2023-07-16T00:23:10.430Z,27.11
2023-07-16T00:24:10.369Z,27.11
2023-07-16T00:25:10.372Z,27.11
2023-07-16T00:26:10.393Z,27.10
2023-07-16T00:27:10.382Z,27.10
2023-07-16T00:28:10.395Z,27.10
2023-07-16T00:29:10.404Z,27.10
2023-07-16T00:30:10.413Z,27.10
2023-07-16T00:31:10.457Z,27.10
2023-07-16T00:32:10.432Z,27.10
2023-07-16T00:33:10.466Z,27.10
2023-07-16T00:34:10.441Z,27.10
2023-07-16T00:35:10.446Z,27.10
2023-07-16T00:36:10.458Z,27.10
2023-07-16T00:37:10.462Z,27.10
2023-07-16T00:38:10.462Z,27.09
2023-07-16T00:39:10.495Z,27.09
2023-07-16T00:40:10.476Z,27.09
2023-07-16T00:41:10.494Z,27.10
2023-07-16T00:42:10.491Z,27.10
2023-07-16T00:43:10.504Z,27.10
2023-07-16T00:44:10.505Z,27.10
2023-07-16T00:45:10.510Z,27.10
2023-07-16T00:46:10.558Z,27.09
2023-07-16T00:47:10.520Z,27.10
2023-07-16T00:48:10.574Z,27.09
2023-07-16T00:49:10.519Z,27.09
2023-07-16T00:50:10.552Z,27.09
2023-07-16T00:51:10.546Z,27.10
2023-07-16T00:52:10.576Z,27.10
2023-07-16T00:53:10.563Z,27.09
2023-07-16T00:54:11.362Z,27.09
2023-07-16T00:55:10.608Z,27.09
2023-07-16T00:56:10.592Z,27.09
2023-07-16T00:57:10.596Z,27.09
2023-07-16T00:58:10.622Z,27.09
2023-07-16T00:59:10.600Z,27.09
2023-07-16T01:00:10.618Z,27.09
2023-07-16T01:01:10.666Z,27.09
2023-07-16T01:02:10.641Z,27.09
2023-07-16T01:03:10.696Z,27.09
2023-07-16T01:04:10.735Z,27.09
2023-07-16T01:05:10.766Z,27.09
2023-07-16T01:06:10.695Z,27.08
2023-07-16T01:07:10.768Z,27.08
2023-07-16T01:08:10.710Z,27.08
2023-07-16T01:09:10.705Z,27.08
2023-07-16T01:10:10.711Z,27.08
2023-07-16T01:11:10.732Z,27.07
2023-07-16T01:12:10.726Z,27.07
2023-07-16T01:13:10.742Z,27.08
2023-07-16T01:14:10.752Z,27.08
2023-07-16T01:15:10.751Z,27.07
2023-07-16T01:16:10.856Z,27.07
2023-07-16T01:17:10.779Z,27.07
2023-07-16T01:18:10.845Z,27.07
2023-07-16T01:19:10.809Z,27.06
2023-07-16T01:20:10.815Z,27.07
2023-07-16T01:21:10.826Z,27.07
2023-07-16T01:22:12.859Z,27.06
2023-07-16T01:23:10.933Z,27.06
2023-07-16T01:24:10.882Z,27.06
2023-07-16T01:25:10.884Z,27.06
2023-07-16T01:26:10.891Z,27.06
2023-07-16T01:27:10.904Z,27.06
2023-07-16T01:28:10.916Z,27.06
2023-07-16T01:29:10.926Z,27.06
2023-07-16T01:30:10.948Z,27.06
2023-07-16T01:31:11.009Z,27.06
2023-07-16T01:32:10.977Z,27.06
2023-07-16T01:33:10.984Z,27.06
2023-07-16T01:34:11.047Z,27.06
2023-07-16T01:35:11.019Z,27.05
2023-07-16T01:36:11.102Z,27.06
2023-07-16T01:37:11.042Z,27.05
2023-07-16T01:38:11.061Z,27.05
2023-07-16T01:39:11.080Z,27.05
2023-07-16T01:40:11.091Z,27.05
2023-07-16T01:41:11.085Z,27.05
2023-07-16T01:42:11.099Z,27.04
2023-07-16T01:43:11.132Z,27.04
2023-07-16T01:44:11.142Z,27.05
2023-07-16T01:45:11.161Z,27.05
2023-07-16T01:46:11.275Z,27.04
2023-07-16T01:47:11.198Z,27.04
2023-07-16T01:48:11.195Z,27.04
2023-07-16T01:49:11.206Z,27.03
2023-07-16T01:50:11.234Z,27.03
2023-07-16T01:51:11.239Z,27.03
2023-07-16T01:52:11.243Z,27.02
2023-07-16T01:53:11.244Z,27.03
2023-07-16T01:54:11.253Z,27.02
2023-07-16T01:55:11.254Z,27.02
2023-07-16T01:56:11.267Z,27.02
2023-07-16T01:57:11.280Z,27.01
2023-07-16T01:58:11.272Z,27.01
2023-07-16T01:59:11.285Z,27.00
2023-07-16T02:00:11.302Z,27.01
2023-07-16T02:01:11.380Z,27.01
2023-07-16T02:02:11.348Z,27.01
2023-07-16T02:03:11.369Z,27.00
2023-07-16T02:04:11.361Z,27.00
2023-07-16T02:05:11.364Z,27.00
2023-07-16T02:06:11.379Z,27.01
2023-07-16T02:07:11.411Z,27.00
2023-07-16T02:08:11.896Z,27.00
2023-07-16T02:09:11.399Z,26.99
2023-07-16T02:10:11.413Z,26.99
2023-07-16T02:11:11.428Z,26.98
2023-07-16T02:12:11.440Z,26.98
2023-07-16T02:13:11.442Z,26.99
2023-07-16T02:14:11.469Z,26.99
2023-07-16T02:15:11.495Z,26.98
2023-07-16T02:16:11.527Z,26.98
2023-07-16T02:17:11.524Z,26.97
2023-07-16T02:18:11.520Z,26.97
2023-07-16T02:19:11.543Z,26.97
2023-07-16T02:20:11.567Z,26.97
2023-07-16T02:21:11.572Z,26.98
2023-07-16T02:22:11.585Z,26.97
2023-07-16T02:23:11.609Z,26.96
2023-07-16T02:24:11.594Z,26.96
2023-07-16T02:25:11.612Z,26.96
2023-07-16T02:26:11.641Z,26.95
2023-07-16T02:27:11.649Z,26.95
2023-07-16T02:28:11.668Z,26.96
2023-07-16T02:29:11.695Z,26.96
2023-07-16T02:30:11.694Z,26.96
2023-07-16T02:31:11.756Z,26.95
2023-07-16T02:32:11.781Z,26.95
2023-07-16T02:33:11.745Z,26.95
2023-07-16T02:34:11.756Z,26.94
2023-07-16T02:35:11.804Z,26.94
2023-07-16T02:36:11.800Z,26.94
2023-07-16T02:37:11.816Z,26.94
2023-07-16T02:38:11.829Z,26.94
2023-07-16T02:39:11.850Z,26.94
2023-07-16T02:40:11.854Z,26.94
2023-07-16T02:41:11.866Z,26.94
2023-07-16T02:42:11.890Z,26.94
2023-07-16T02:43:11.892Z,26.94
2023-07-16T02:44:11.934Z,26.94
2023-07-16T02:45:11.931Z,26.93
2023-07-16T02:46:11.938Z,26.93
2023-07-16T02:47:12.017Z,26.93
2023-07-16T02:48:12.471Z,26.93
2023-07-16T02:49:11.991Z,26.93
2023-07-16T02:50:12.014Z,26.93
2023-07-16T02:51:12.022Z,26.92
2023-07-16T02:52:12.048Z,26.92
2023-07-16T02:53:12.051Z,26.93
2023-07-16T02:54:12.068Z,26.93
2023-07-16T02:55:12.112Z,26.92
2023-07-16T02:56:12.104Z,26.92
2023-07-16T02:57:12.115Z,26.93
2023-07-16T02:58:12.433Z,26.92
2023-07-16T02:59:12.142Z,26.93
2023-07-16T03:00:12.158Z,26.92
2023-07-16T03:01:12.214Z,26.92
2023-07-16T03:02:12.213Z,26.92
2023-07-16T03:03:12.444Z,26.93
2023-07-16T03:04:12.237Z,26.92
2023-07-16T03:05:12.254Z,26.91
2023-07-16T03:06:12.305Z,26.92
2023-07-16T03:07:12.323Z,26.91
2023-07-16T03:08:12.341Z,26.90
2023-07-16T03:09:12.368Z,26.91
2023-07-16T03:10:12.394Z,26.91
2023-07-16T03:11:12.408Z,26.91
2023-07-16T03:12:12.491Z,26.90
2023-07-16T03:13:12.457Z,26.90
2023-07-16T03:14:12.481Z,26.91
2023-07-16T03:15:12.501Z,26.91
2023-07-16T03:16:12.565Z,26.90
2023-07-16T03:17:12.719Z,26.90
2023-07-16T03:18:12.551Z,26.90
2023-07-16T03:19:12.577Z,26.90
2023-07-16T03:20:12.585Z,26.90
2023-07-16T03:21:13.442Z,26.89
2023-07-16T03:22:12.628Z,26.90
2023-07-16T03:23:12.690Z,26.90
2023-07-16T03:24:12.664Z,26.89
2023-07-16T03:25:12.681Z,26.90
2023-07-16T03:26:12.746Z,26.89
2023-07-16T03:27:18.647Z,26.89
2023-07-16T03:28:13.724Z,26.88
2023-07-16T03:29:12.710Z,26.89
2023-07-16T03:30:12.693Z,26.88
2023-07-16T03:31:12.721Z,26.88
2023-07-16T03:32:12.670Z,26.89
2023-07-16T03:33:12.683Z,26.89
2023-07-16T03:34:12.654Z,26.88
2023-07-16T03:35:12.645Z,26.88
2023-07-16T03:36:12.638Z,26.88
2023-07-16T03:37:12.629Z,26.88
2023-07-16T03:38:12.619Z,26.88
2023-07-16T03:39:12.605Z,26.88
2023-07-16T03:40:12.618Z,26.87
2023-07-16T03:41:12.589Z,26.87
2023-07-16T03:42:12.584Z,26.87
2023-07-16T03:43:12.579Z,26.88
2023-07-16T03:44:12.567Z,26.88
2023-07-16T03:45:12.597Z,26.87
2023-07-16T03:46:12.598Z,26.87
2023-07-16T03:47:12.631Z,26.87
2023-07-16T03:48:12.830Z,26.87
2023-07-16T03:49:12.658Z,26.86
2023-07-16T03:50:12.677Z,26.86
2023-07-16T03:51:12.693Z,26.85
2023-07-16T03:52:12.708Z,26.85
2023-07-16T03:53:12.740Z,26.86
2023-07-16T03:54:12.764Z,26.86
2023-07-16T03:55:12.796Z,26.85
2023-07-16T03:56:12.796Z,26.85
2023-07-16T03:57:12.842Z,26.85
2023-07-16T03:58:12.857Z,26.84
2023-07-16T03:59:12.881Z,26.85
2023-07-16T04:00:12.905Z,26.85
2023-07-16T04:01:12.916Z,26.84
2023-07-16T04:02:12.982Z,26.84
2023-07-16T04:03:13.026Z,26.83
2023-07-16T04:04:13.003Z,26.82
2023-07-16T04:05:13.015Z,26.84
2023-07-16T04:06:13.136Z,26.83
2023-07-16T04:07:13.056Z,26.83
2023-07-16T04:08:13.083Z,26.83
2023-07-16T04:09:13.101Z,26.83
2023-07-16T04:10:13.131Z,26.82
2023-07-16T04:11:13.177Z,26.83
2023-07-16T04:12:13.175Z,26.82
2023-07-16T04:13:13.198Z,26.82
2023-07-16T04:14:13.220Z,26.82
2023-07-16T04:15:13.264Z,26.83
2023-07-16T04:16:13.327Z,26.82
2023-07-16T04:17:13.297Z,26.82
2023-07-16T04:18:13.319Z,26.82
2023-07-16T04:19:13.436Z,26.82
2023-07-16T04:20:13.382Z,26.81
2023-07-16T04:21:13.416Z,26.81
2023-07-16T04:22:13.439Z,26.81
2023-07-16T04:23:13.521Z,26.80
2023-07-16T04:24:13.518Z,26.81
2023-07-16T04:25:13.531Z,26.81
2023-07-16T04:26:13.693Z,26.81
2023-07-16T04:27:13.581Z,26.80
2023-07-16T04:28:13.615Z,26.80
2023-07-16T04:29:13.633Z,26.80
2023-07-16T04:30:13.710Z,26.80
2023-07-16T04:31:13.774Z,26.80
2023-07-16T04:32:13.710Z,26.80
2023-07-16T04:33:13.740Z,26.79
2023-07-16T04:34:13.755Z,26.80
2023-07-16T04:35:13.788Z,26.80
2023-07-16T04:36:14.033Z,26.79
2023-07-16T04:37:13.835Z,26.79
2023-07-16T04:38:13.879Z,26.79
2023-07-16T04:39:13.887Z,26.79
2023-07-16T04:40:13.908Z,26.79
2023-07-16T04:41:13.956Z,26.78
2023-07-16T04:42:13.983Z,26.78
2023-07-16T04:43:14.020Z,26.78
2023-07-16T04:44:14.029Z,26.78
2023-07-16T04:45:14.060Z,26.78
2023-07-16T04:46:14.344Z,26.78
2023-07-16T04:47:14.120Z,26.78
2023-07-16T04:48:14.155Z,26.78
2023-07-16T04:49:14.186Z,26.77
2023-07-16T04:50:14.220Z,26.78
2023-07-16T04:51:14.238Z,26.77
2023-07-16T04:52:14.259Z,26.77
2023-07-16T04:53:14.293Z,26.77
2023-07-16T04:54:14.321Z,26.77
2023-07-16T04:55:14.338Z,26.77
2023-07-16T04:56:14.658Z,26.76
2023-07-16T04:57:14.376Z,26.77
2023-07-16T04:58:14.403Z,26.77
2023-07-16T04:59:14.423Z,26.76
2023-07-16T05:00:14.455Z,26.77
2023-07-16T05:01:14.514Z,26.76
2023-07-16T05:02:14.601Z,26.76
2023-07-16T05:03:14.569Z,26.76
2023-07-16T05:04:14.633Z,26.76
2023-07-16T05:05:14.592Z,26.76
2023-07-16T05:06:14.781Z,26.75
2023-07-16T05:07:14.631Z,26.76
2023-07-16T05:08:14.657Z,26.76
2023-07-16T05:09:14.684Z,26.76
2023-07-16T05:10:14.727Z,26.76
2023-07-16T05:11:14.728Z,26.76
2023-07-16T05:12:14.763Z,26.76
2023-07-16T05:13:14.809Z,26.76
2023-07-16T05:14:14.817Z,26.77
2023-07-16T05:15:14.856Z,26.76
2023-07-16T05:16:15.052Z,26.76
2023-07-16T05:17:15.040Z,26.75
2023-07-16T05:18:14.971Z,26.75
2023-07-16T05:19:14.947Z,26.75
2023-07-16T05:20:14.986Z,26.75
2023-07-16T05:21:15.031Z,26.75
2023-07-16T05:22:15.025Z,26.76
2023-07-16T05:23:15.062Z,26.76
2023-07-16T05:24:15.094Z,26.75
2023-07-16T05:25:15.117Z,26.75
2023-07-16T05:26:15.439Z,26.75
2023-07-16T05:27:15.177Z,26.75
2023-07-16T05:28:15.205Z,26.76
2023-07-16T05:29:15.227Z,26.75
2023-07-16T05:30:15.264Z,26.76
2023-07-16T05:31:15.302Z,26.76
2023-07-16T05:32:15.366Z,26.76
2023-07-16T05:33:15.371Z,26.76
2023-07-16T05:34:15.378Z,26.77
2023-07-16T05:35:15.395Z,26.77
2023-07-16T05:36:15.650Z,26.77
2023-07-16T05:37:15.445Z,26.77
2023-07-16T05:38:15.469Z,26.77
2023-07-16T05:39:15.487Z,26.77
2023-07-16T05:40:15.508Z,26.77
2023-07-16T05:41:15.532Z,26.76
2023-07-16T05:42:15.560Z,26.77
2023-07-16T05:43:15.589Z,26.76
2023-07-16T05:44:15.604Z,26.76
2023-07-16T05:45:15.639Z,26.76
2023-07-16T05:46:15.982Z,26.77
2023-07-16T05:47:15.691Z,26.77
2023-07-16T05:48:15.779Z,26.78
2023-07-16T05:49:15.741Z,26.77
2023-07-16T05:50:16.752Z,26.77
2023-07-16T05:51:15.807Z,26.76
2023-07-16T05:52:15.832Z,26.77
2023-07-16T05:53:15.846Z,26.77
2023-07-16T05:54:15.898Z,26.77
2023-07-16T05:55:15.909Z,26.76
2023-07-16T05:56:16.197Z,26.77
2023-07-16T05:57:15.958Z,26.77
2023-07-16T05:58:15.977Z,26.77
2023-07-16T05:59:16.004Z,26.76
2023-07-16T06:00:16.025Z,26.77
2023-07-16T06:01:16.073Z,26.76
2023-07-16T06:02:16.080Z,26.76
2023-07-16T06:03:16.165Z,26.76
2023-07-16T06:04:16.222Z,26.76
2023-07-16T06:05:16.204Z,26.76
2023-07-16T06:06:16.314Z,26.76
2023-07-16T06:07:16.225Z,26.77
2023-07-16T06:08:16.246Z,26.76
2023-07-16T06:09:16.256Z,26.77
2023-07-16T06:10:16.292Z,26.77
2023-07-16T06:11:16.309Z,26.77
2023-07-16T06:12:16.328Z,26.77
2023-07-16T06:13:16.352Z,26.77
2023-07-16T06:14:16.365Z,26.77
2023-07-16T06:15:16.419Z,26.77
2023-07-16T06:16:16.720Z,26.77
2023-07-16T06:17:16.453Z,26.77
2023-07-16T06:18:17.936Z,26.77
2023-07-16T06:19:16.707Z,26.77
2023-07-16T06:20:16.734Z,26.77
2023-07-16T06:21:16.789Z,26.77
2023-07-16T06:22:16.797Z,26.77
2023-07-16T06:23:16.888Z,26.77
2023-07-16T06:24:17.380Z,26.77
2023-07-16T06:25:16.895Z,26.77
2023-07-16T06:26:17.237Z,26.78
2023-07-16T06:27:16.961Z,26.76
2023-07-16T06:28:17.022Z,26.77
2023-07-16T06:29:17.037Z,26.76
2023-07-16T06:30:17.057Z,26.76
2023-07-16T06:31:17.166Z,26.76
2023-07-16T06:32:17.111Z,26.76
2023-07-16T06:33:17.141Z,26.76
2023-07-16T06:34:17.177Z,26.76
2023-07-16T06:35:17.213Z,26.75
2023-07-16T06:36:17.496Z,26.75
2023-07-16T06:37:17.259Z,26.76
2023-07-16T06:38:17.298Z,26.76
2023-07-16T06:39:17.305Z,26.74
2023-07-16T06:40:17.327Z,26.75
2023-07-16T06:41:17.367Z,26.76
2023-07-16T06:42:17.399Z,26.75
2023-07-16T06:43:17.421Z,26.75
2023-07-16T06:44:17.454Z,26.75
2023-07-16T06:45:17.474Z,26.75
2023-07-16T06:46:17.759Z,26.75
2023-07-16T06:47:17.541Z,26.75
2023-07-16T06:48:17.570Z,26.74
2023-07-16T06:49:17.592Z,26.75
2023-07-16T06:50:17.620Z,26.74
2023-07-16T06:51:18.387Z,26.73
2023-07-16T06:52:17.668Z,26.74
2023-07-16T06:53:17.708Z,26.73
2023-07-16T06:54:17.754Z,26.74
2023-07-16T06:55:17.795Z,26.74
2023-07-16T06:56:17.967Z,26.74
2023-07-16T06:57:17.833Z,26.73
2023-07-16T06:58:17.857Z,26.73
2023-07-16T06:59:17.898Z,26.73
2023-07-16T07:00:17.925Z,26.74
2023-07-16T07:01:18.065Z,26.73
2023-07-16T07:02:17.979Z,26.73
2023-07-16T07:03:18.102Z,26.73
2023-07-16T07:04:18.058Z,26.74
2023-07-16T07:05:18.051Z,26.73
2023-07-16T07:06:18.222Z,26.73
2023-07-16T07:07:18.085Z,26.73
2023-07-16T07:08:18.081Z,26.73
2023-07-16T07:09:18.105Z,26.72
2023-07-16T07:10:18.135Z,26.73
2023-07-16T07:11:18.154Z,26.74
2023-07-16T07:12:18.198Z,26.73
2023-07-16T07:13:18.211Z,26.73
2023-07-16T07:14:18.239Z,26.73
2023-07-16T07:15:18.273Z,26.73
2023-07-16T07:16:18.563Z,26.73
2023-07-16T07:17:18.320Z,26.73
2023-07-16T07:18:18.356Z,26.73
2023-07-16T07:19:18.385Z,26.73
2023-07-16T07:20:18.416Z,26.73
2023-07-16T07:21:18.438Z,26.73
2023-07-16T07:22:20.430Z,26.73
2023-07-16T07:23:18.488Z,26.74
2023-07-16T07:24:18.440Z,26.74
2023-07-16T07:25:18.432Z,26.73
2023-07-16T07:26:18.589Z,26.73
2023-07-16T07:27:18.408Z,26.73
2023-07-16T07:28:18.404Z,26.74
2023-07-16T07:29:18.387Z,26.74
2023-07-16T07:30:18.384Z,26.74
2023-07-16T07:31:18.390Z,26.73
2023-07-16T07:32:18.371Z,26.73
2023-07-16T07:33:18.352Z,26.74
2023-07-16T07:34:18.323Z,26.74
2023-07-16T07:35:18.304Z,26.74
2023-07-16T07:36:18.512Z,26.73
2023-07-16T07:37:18.276Z,26.74
2023-07-16T07:38:18.269Z,26.73
2023-07-16T07:39:18.257Z,26.73
2023-07-16T07:40:18.244Z,26.74
2023-07-16T07:41:18.224Z,26.73
2023-07-16T07:42:18.204Z,26.73
2023-07-16T07:43:18.194Z,26.74
2023-07-16T07:44:18.177Z,26.73
2023-07-16T07:45:18.174Z,26.74
2023-07-16T07:46:18.348Z,26.73
2023-07-16T07:47:18.147Z,26.73
2023-07-16T07:48:18.133Z,26.73
2023-07-16T07:49:18.106Z,26.73
2023-07-16T07:50:18.098Z,26.73
2023-07-16T07:51:18.084Z,26.73
2023-07-16T07:52:18.068Z,26.72
2023-07-16T07:53:18.064Z,26.73
2023-07-16T07:54:18.047Z,26.72
2023-07-16T07:55:18.027Z,26.72
2023-07-16T07:56:18.261Z,26.73
2023-07-16T07:57:18.576Z,26.73
2023-07-16T07:58:17.995Z,26.73
2023-07-16T07:59:18.030Z,26.73
2023-07-16T08:00:17.957Z,26.72
2023-07-16T08:01:17.944Z,26.73
2023-07-16T08:02:17.925Z,26.73
2023-07-16T08:03:17.995Z,26.72
2023-07-16T08:04:17.964Z,26.72
2023-07-16T08:05:17.979Z,26.72
2023-07-16T08:06:18.235Z,26.71
2023-07-16T08:07:17.871Z,26.72
2023-07-16T08:08:17.858Z,26.72
2023-07-16T08:09:17.848Z,26.71
2023-07-16T08:10:17.838Z,26.72
2023-07-16T08:11:17.822Z,26.71
2023-07-16T08:12:17.801Z,26.71
2023-07-16T08:13:17.778Z,26.72
2023-07-16T08:14:17.797Z,26.72
2023-07-16T08:15:17.822Z,26.71
2023-07-16T08:16:18.156Z,26.72
2023-07-16T08:17:17.934Z,26.71
2023-07-16T08:18:17.968Z,26.71
2023-07-16T08:19:17.950Z,26.71
2023-07-16T08:20:18.932Z,26.70
2023-07-16T08:21:17.915Z,26.70
2023-07-16T08:22:17.901Z,26.71
2023-07-16T08:23:17.891Z,26.70
2023-07-16T08:24:17.881Z,26.71
2023-07-16T08:25:17.859Z,26.70
2023-07-16T08:26:18.075Z,26.71
2023-07-16T08:27:17.823Z,26.70
2023-07-16T08:28:17.821Z,26.70
2023-07-16T08:29:17.807Z,26.70
2023-07-16T08:30:17.811Z,26.70
2023-07-16T08:31:17.821Z,26.70
2023-07-16T08:32:17.773Z,26.70
2023-07-16T08:33:17.804Z,26.70
2023-07-16T08:34:17.836Z,26.70
2023-07-16T08:35:17.929Z,26.70
2023-07-16T08:36:18.119Z,26.70
2023-07-16T08:37:17.933Z,26.70
2023-07-16T08:38:17.956Z,26.70
2023-07-16T08:39:20.466Z,26.70
2023-07-16T08:40:17.999Z,26.70
2023-07-16T08:41:17.962Z,26.70
2023-07-16T08:42:17.956Z,26.69
2023-07-16T08:43:17.947Z,26.70
2023-07-16T08:44:17.937Z,26.70
2023-07-16T08:45:17.920Z,26.70
2023-07-16T08:46:18.238Z,26.69
2023-07-16T08:47:17.882Z,26.69
2023-07-16T08:48:17.869Z,26.69
2023-07-16T08:49:17.864Z,26.69
2023-07-16T08:50:17.833Z,26.69
2023-07-16T08:51:17.831Z,26.69
2023-07-16T08:52:17.825Z,26.69
2023-07-16T08:53:17.826Z,26.69
2023-07-16T08:54:17.811Z,26.69
2023-07-16T08:55:17.789Z,26.68
2023-07-16T08:56:18.057Z,26.68
2023-07-16T08:57:17.760Z,26.69
2023-07-16T08:58:17.775Z,26.68
2023-07-16T08:59:17.735Z,26.69
2023-07-16T09:00:17.738Z,26.69
2023-07-16T09:01:17.716Z,26.69
2023-07-16T09:02:17.860Z,26.68
2023-07-16T09:03:17.830Z,26.68
2023-07-16T09:04:17.698Z,26.68
2023-07-16T09:05:32.345Z,26.67
2023-07-16T09:06:19.163Z,26.67
2023-07-16T09:07:17.669Z,26.68
2023-07-16T09:08:17.670Z,26.67
2023-07-16T09:09:17.665Z,26.68
2023-07-16T09:10:17.657Z,26.67
2023-07-16T09:11:17.677Z,26.67
2023-07-16T09:12:17.653Z,26.67
2023-07-16T09:13:17.648Z,26.66
2023-07-16T09:14:17.639Z,26.67
2023-07-16T09:15:17.637Z,26.66
2023-07-16T09:16:17.838Z,26.67
2023-07-16T09:17:17.637Z,26.67
2023-07-16T09:18:20.300Z,26.67
2023-07-16T09:19:17.587Z,26.67
2023-07-16T09:20:17.582Z,26.67
2023-07-16T09:21:17.560Z,26.66
2023-07-16T09:22:17.549Z,26.67
2023-07-16T09:23:17.547Z,26.66
2023-07-16T09:24:20.741Z,26.67
2023-07-16T09:25:17.529Z,26.65
2023-07-16T09:26:17.784Z,26.66
2023-07-16T09:27:17.525Z,26.66
2023-07-16T09:28:17.528Z,26.66
2023-07-16T09:29:17.514Z,26.66
2023-07-16T09:30:17.502Z,26.66
2023-07-16T09:31:17.531Z,26.66
2023-07-16T09:32:17.537Z,26.65
2023-07-16T09:33:17.499Z,26.67
2023-07-16T09:34:17.482Z,26.67
2023-07-16T09:35:17.473Z,26.66
2023-07-16T09:36:20.854Z,26.66
2023-07-16T09:37:17.457Z,26.66
2023-07-16T09:38:17.458Z,26.65
2023-07-16T09:39:17.448Z,26.66
2023-07-16T09:40:17.432Z,26.65
2023-07-16T09:41:17.411Z,26.67
2023-07-16T09:42:19.415Z,26.66
2023-07-16T09:43:17.598Z,26.66
2023-07-16T09:44:17.604Z,26.67
2023-07-16T09:45:17.642Z,26.66
2023-07-16T09:46:17.980Z,26.67
2023-07-16T09:47:17.696Z,26.66
2023-07-16T09:48:17.902Z,26.67
2023-07-16T09:49:17.759Z,26.66
2023-07-16T09:50:17.775Z,26.66
2023-07-16T09:51:17.810Z,26.66
2023-07-16T09:52:17.845Z,26.66
2023-07-16T09:53:17.883Z,26.66
2023-07-16T09:54:17.908Z,26.66
2023-07-16T09:55:17.938Z,26.67
2023-07-16T09:56:18.165Z,26.66
2023-07-16T09:57:17.998Z,26.66
2023-07-16T09:58:18.024Z,26.67
2023-07-16T09:59:18.062Z,26.66
2023-07-16T10:00:18.110Z,26.66
2023-07-16T10:01:18.153Z,26.66
2023-07-16T10:02:18.258Z,26.66
2023-07-16T10:03:18.262Z,26.66
2023-07-16T10:04:21.041Z,26.65
2023-07-16T10:05:18.218Z,26.66
2023-07-16T10:06:18.288Z,26.66
2023-07-16T10:07:18.207Z,26.66
2023-07-16T10:08:18.207Z,26.66
2023-07-16T10:09:18.191Z,26.66
2023-07-16T10:10:18.163Z,26.66
2023-07-16T10:11:18.151Z,26.66
2023-07-16T10:12:18.193Z,26.66
2023-07-16T10:13:18.120Z,26.66
2023-07-16T10:14:18.113Z,26.66
2023-07-16T10:15:18.098Z,26.66
2023-07-16T10:16:18.297Z,26.66
2023-07-16T10:17:18.077Z,26.65
2023-07-16T10:18:18.060Z,26.66
2023-07-16T10:19:18.178Z,26.66
2023-07-16T10:20:18.034Z,26.66
2023-07-16T10:21:18.044Z,26.67
2023-07-16T10:22:18.013Z,26.66
2023-07-16T10:23:17.998Z,26.66
2023-07-16T10:24:17.986Z,26.66
2023-07-16T10:25:17.970Z,26.67
2023-07-16T10:26:20.181Z,26.67
2023-07-16T10:27:18.112Z,26.66
2023-07-16T10:28:18.146Z,26.66
2023-07-16T10:29:18.195Z,26.67
2023-07-16T10:30:18.206Z,26.67
2023-07-16T10:31:18.250Z,26.67
2023-07-16T10:32:18.256Z,26.67
2023-07-16T10:33:18.286Z,26.66
2023-07-16T10:34:18.305Z,26.67
2023-07-16T10:35:18.349Z,26.67
2023-07-16T10:36:18.634Z,26.67
2023-07-16T10:37:18.392Z,26.67
2023-07-16T10:38:18.428Z,26.66
2023-07-16T10:39:18.453Z,26.67
2023-07-16T10:40:18.565Z,26.67
2023-07-16T10:41:18.515Z,26.66
2023-07-16T10:42:18.533Z,26.67
2023-07-16T10:43:18.567Z,26.66
2023-07-16T10:44:18.612Z,26.67
2023-07-16T10:45:18.623Z,26.67
2023-07-16T10:46:18.938Z,26.67
2023-07-16T10:47:18.665Z,26.67
2023-07-16T10:48:18.689Z,26.67
2023-07-16T10:49:18.725Z,26.67
2023-07-16T10:50:20.700Z,26.67
2023-07-16T10:51:18.735Z,26.67
2023-07-16T10:52:18.728Z,26.66
2023-07-16T10:53:18.711Z,26.68
2023-07-16T10:54:18.707Z,26.67
2023-07-16T10:55:18.692Z,26.67
2023-07-16T10:56:19.033Z,26.67
2023-07-16T10:57:18.663Z,26.68
2023-07-16T10:58:18.664Z,26.68
2023-07-16T10:59:18.651Z,26.68
2023-07-16T11:00:18.638Z,26.69
2023-07-16T11:01:18.657Z,26.69
2023-07-16T11:02:18.627Z,26.68
2023-07-16T11:03:18.702Z,26.68
2023-07-16T11:04:18.589Z,26.69
2023-07-16T11:05:18.563Z,26.69
2023-07-16T11:06:18.772Z,26.69
2023-07-16T11:07:18.553Z,26.68
2023-07-16T11:08:18.524Z,26.69
2023-07-16T11:09:18.522Z,26.68
2023-07-16T11:10:18.487Z,26.68
2023-07-16T11:11:18.482Z,26.70
2023-07-16T11:12:18.463Z,26.69
2023-07-16T11:13:18.453Z,26.70
2023-07-16T11:14:18.452Z,26.70
2023-07-16T11:15:18.431Z,26.70
2023-07-16T11:16:18.794Z,26.69
2023-07-16T11:17:18.395Z,26.69
2023-07-16T11:18:18.397Z,26.69
2023-07-16T11:19:18.398Z,26.70
2023-07-16T11:20:18.363Z,26.70
2023-07-16T11:21:18.350Z,26.70
2023-07-16T11:22:18.338Z,26.70
2023-07-16T11:23:18.345Z,26.70
2023-07-16T11:24:18.317Z,26.70
2023-07-16T11:25:18.296Z,26.70
2023-07-16T11:26:18.453Z,26.70
2023-07-16T11:27:18.271Z,26.71
2023-07-16T11:28:18.262Z,26.71
2023-07-16T11:29:18.251Z,26.71
2023-07-16T11:30:18.238Z,26.71
2023-07-16T11:31:18.324Z,26.71
2023-07-16T11:32:18.283Z,26.71
2023-07-16T11:33:18.315Z,26.71
2023-07-16T11:34:18.309Z,26.72
2023-07-16T11:35:18.346Z,26.71
2023-07-16T11:36:18.650Z,26.72
2023-07-16T11:37:18.408Z,26.71
2023-07-16T11:38:18.442Z,26.72
2023-07-16T11:39:18.478Z,26.72
2023-07-16T11:40:18.506Z,26.72
2023-07-16T11:41:18.533Z,26.72
2023-07-16T11:42:18.571Z,26.72
2023-07-16T11:43:18.610Z,26.73
2023-07-16T11:44:18.633Z,26.72
2023-07-16T11:45:18.699Z,26.72
2023-07-16T11:46:19.417Z,26.73
2023-07-16T11:47:18.924Z,26.73
2023-07-16T11:48:18.766Z,26.73
2023-07-16T11:49:18.776Z,26.73
2023-07-16T11:50:18.808Z,26.74
2023-07-16T11:51:18.842Z,26.73
2023-07-16T11:52:18.877Z,26.73
2023-07-16T11:53:18.898Z,26.74
2023-07-16T11:54:18.920Z,26.74
2023-07-16T11:55:18.957Z,26.73
2023-07-16T11:56:19.185Z,26.74
2023-07-16T11:57:19.014Z,26.74
2023-07-16T11:58:19.034Z,26.74
2023-07-16T11:59:19.064Z,26.74
2023-07-16T12:00:19.100Z,26.74
2023-07-16T12:01:19.215Z,26.74
2023-07-16T12:02:19.156Z,26.74
2023-07-16T12:03:19.261Z,26.74
2023-07-16T12:04:19.225Z,26.75
2023-07-16T12:05:19.251Z,26.74
2023-07-16T12:06:19.496Z,26.74
2023-07-16T12:07:19.309Z,26.74
2023-07-16T12:08:19.334Z,26.75
2023-07-16T12:09:19.356Z,26.74
2023-07-16T12:10:19.390Z,26.75
2023-07-16T12:11:19.414Z,26.75
2023-07-16T12:12:19.441Z,26.75
2023-07-16T12:13:19.477Z,26.76
2023-07-16T12:14:19.503Z,26.76
2023-07-16T12:15:19.528Z,26.76
2023-07-16T12:16:19.791Z,26.75
2023-07-16T12:17:19.698Z,26.75
2023-07-16T12:18:19.629Z,26.75
2023-07-16T12:19:19.630Z,26.76
2023-07-16T12:20:19.664Z,26.76
2023-07-16T12:21:19.685Z,26.76
2023-07-16T12:22:19.722Z,26.76
2023-07-16T12:23:19.741Z,26.76
2023-07-16T12:24:19.763Z,26.76
2023-07-16T12:25:19.792Z,26.77
2023-07-16T12:26:19.820Z,26.76
2023-07-16T12:27:19.879Z,26.76
2023-07-16T12:28:19.894Z,26.76
2023-07-16T12:29:19.905Z,26.77
2023-07-16T12:30:19.930Z,26.76
2023-07-16T12:31:19.971Z,26.77
2023-07-16T12:32:20.017Z,26.77
2023-07-16T12:33:20.011Z,26.77
2023-07-16T12:34:20.033Z,26.78
2023-07-16T12:35:20.067Z,26.77
2023-07-16T12:36:20.095Z,26.77
2023-07-16T12:37:20.120Z,26.77
2023-07-16T12:38:20.125Z,26.78
2023-07-16T12:39:20.156Z,26.78
2023-07-16T12:40:20.171Z,26.77
2023-07-16T12:41:20.214Z,26.78
2023-07-16T12:42:20.228Z,26.79
2023-07-16T12:43:20.254Z,26.78
2023-07-16T12:44:20.277Z,26.78
2023-07-16T12:45:20.301Z,26.79
2023-07-16T12:46:20.523Z,26.79
2023-07-16T12:47:20.338Z,26.79
2023-07-16T12:48:20.379Z,26.79
2023-07-16T12:49:20.420Z,26.79
2023-07-16T12:50:20.420Z,26.79
2023-07-16T12:51:20.454Z,26.79
2023-07-16T12:52:20.475Z,26.80